createdAt,value
2022-07-27T00:00:16.553Z,0.00
2022-07-27T00:01:16.648Z,0.00
2022-07-27T00:02:16.520Z,0.00
2022-07-27T00:03:16.512Z,0.00
2022-07-27T00:04:16.535Z,0.00
2022-07-27T00:05:16.481Z,0.00
2022-07-27T00:06:16.467Z,0.00
2022-07-27T00:07:16.460Z,0.00
2022-07-27T00:08:16.441Z,0.00
2022-07-27T00:09:16.438Z,0.00
2022-07-27T00:10:16.417Z,0.00
2022-07-27T00:11:16.415Z,0.00
2022-07-27T00:12:16.392Z,0.00
2022-07-27T00:13:16.386Z,0.00
2022-07-27T00:14:16.363Z,0.00
2022-07-27T00:15:16.357Z,0.00
2022-07-27T00:16:16.395Z,0.00
2022-07-27T00:17:16.331Z,0.00
2022-07-27T00:18:16.314Z,0.00
2022-07-27T00:19:16.306Z,0.00
2022-07-27T00:20:16.290Z,0.00
2022-07-27T00:21:16.283Z,0.00
2022-07-27T00:22:16.258Z,0.00
2022-07-27T00:23:16.250Z,0.00
2022-07-27T00:24:16.236Z,0.00
2022-07-27T00:25:16.352Z,0.00
2022-07-27T00:26:16.210Z,0.00
2022-07-27T00:27:16.195Z,0.00
2022-07-27T00:28:16.184Z,0.00
2022-07-27T00:29:16.196Z,0.00
2022-07-27T00:30:16.154Z,0.00
2022-07-27T00:31:16.272Z,0.00
2022-07-27T00:32:16.128Z,0.00
2022-07-27T00:33:17.170Z,0.00
2022-07-27T00:34:16.100Z,0.00
2022-07-27T00:35:16.090Z,0.00
2022-07-27T00:36:16.073Z,0.00
2022-07-27T00:37:16.060Z,0.00
2022-07-27T00:38:16.045Z,0.00
2022-07-27T00:39:16.043Z,0.00
2022-07-27T00:40:16.018Z,0.00
2022-07-27T00:41:16.012Z,0.00
2022-07-27T00:42:16.100Z,0.00
2022-07-27T00:43:15.994Z,0.00
2022-07-27T00:44:15.968Z,0.00
2022-07-27T00:45:15.958Z,0.00
2022-07-27T00:46:15.998Z,0.00
2022-07-27T00:47:15.932Z,0.00
2022-07-27T00:48:15.918Z,0.00
2022-07-27T00:49:16.537Z,0.00
2022-07-27T00:50:15.896Z,0.00
2022-07-27T00:51:15.880Z,0.00
2022-07-27T00:52:15.865Z,0.00
2022-07-27T00:53:15.857Z,0.00
2022-07-27T00:54:15.840Z,0.00
2022-07-27T00:55:15.825Z,0.00
2022-07-27T00:56:15.813Z,0.00
2022-07-27T00:57:15.800Z,0.00
2022-07-27T00:58:15.782Z,0.00
2022-07-27T00:59:15.772Z,0.00
2022-07-27T01:00:15.755Z,0.00
2022-07-27T01:01:15.745Z,0.00
2022-07-27T01:02:19.412Z,0.00
2022-07-27T01:03:16.313Z,0.00
2022-07-27T01:04:15.703Z,0.00
2022-07-27T01:05:15.696Z,0.00
2022-07-27T01:06:15.692Z,0.00
2022-07-27T01:07:15.674Z,0.00
2022-07-27T01:08:15.654Z,0.00
2022-07-27T01:09:15.640Z,0.00
2022-07-27T01:10:15.623Z,0.00
2022-07-27T01:11:15.617Z,0.00
2022-07-27T01:12:15.598Z,0.00
2022-07-27T01:13:15.598Z,0.00
2022-07-27T01:14:15.568Z,0.00
2022-07-27T01:15:15.564Z,0.00
2022-07-27T01:16:15.668Z,0.00
2022-07-27T01:17:15.535Z,0.00
2022-07-27T01:18:15.518Z,0.00
2022-07-27T01:19:15.822Z,0.00
2022-07-27T01:20:15.494Z,0.00
2022-07-27T01:21:15.478Z,0.00
2022-07-27T01:22:15.466Z,0.00
2022-07-27T01:23:15.451Z,0.00
2022-07-27T01:24:15.434Z,0.00
2022-07-27T01:25:15.428Z,0.00
2022-07-27T01:26:15.409Z,0.00
2022-07-27T01:27:15.401Z,0.00
2022-07-27T01:28:15.387Z,0.00
2022-07-27T01:29:15.626Z,0.00
2022-07-27T01:30:15.367Z,0.00
2022-07-27T01:31:15.442Z,0.00
2022-07-27T01:32:15.328Z,0.00
2022-07-27T01:33:15.325Z,0.00
2022-07-27T01:34:15.302Z,0.00
2022-07-27T01:35:15.291Z,0.00
2022-07-27T01:36:15.278Z,0.00
2022-07-27T01:37:15.274Z,0.00
2022-07-27T01:38:15.255Z,0.00
2022-07-27T01:39:15.653Z,0.00
2022-07-27T01:40:15.232Z,0.00
2022-07-27T01:41:15.222Z,0.00
2022-07-27T01:42:15.202Z,0.00
2022-07-27T01:43:15.191Z,0.00
2022-07-27T01:44:15.176Z,0.00
2022-07-27T01:45:15.161Z,0.00
2022-07-27T01:46:15.182Z,0.00
2022-07-27T01:47:15.333Z,0.00
2022-07-27T01:48:15.117Z,0.00
2022-07-27T01:49:15.937Z,0.00
2022-07-27T01:50:15.096Z,0.00
2022-07-27T01:51:15.086Z,0.00
2022-07-27T01:52:15.079Z,0.00
2022-07-27T01:53:15.059Z,0.00
2022-07-27T01:54:15.050Z,0.00
2022-07-27T01:55:15.033Z,0.00
2022-07-27T01:56:15.015Z,0.00
2022-07-27T01:57:15.004Z,0.00
2022-07-27T01:58:14.986Z,0.00
2022-07-27T01:59:16.164Z,0.00
2022-07-27T02:00:14.967Z,0.00
2022-07-27T02:01:15.014Z,0.00
2022-07-27T02:02:14.936Z,0.00
2022-07-27T02:03:14.919Z,0.00
2022-07-27T02:04:14.905Z,0.00
2022-07-27T02:05:14.987Z,0.00
2022-07-27T02:06:14.884Z,0.00
2022-07-27T02:07:14.869Z,0.00
2022-07-27T02:08:14.858Z,0.00
2022-07-27T02:09:15.157Z,0.00
2022-07-27T02:10:14.834Z,0.00
2022-07-27T02:11:14.824Z,0.00
2022-07-27T02:12:14.806Z,0.00
2022-07-27T02:13:22.427Z,0.00
2022-07-27T02:14:14.779Z,0.00
2022-07-27T02:15:15.707Z,0.00
2022-07-27T02:16:17.061Z,0.00
2022-07-27T02:17:14.737Z,0.00
2022-07-27T02:18:29.383Z,0.00
2022-07-27T02:19:16.400Z,0.00
2022-07-27T02:20:14.742Z,0.00
2022-07-27T02:21:14.682Z,0.00
2022-07-27T02:22:14.669Z,0.00
2022-07-27T02:23:14.685Z,0.00
2022-07-27T02:24:14.650Z,0.00
2022-07-27T02:25:14.633Z,0.00
2022-07-27T02:26:14.623Z,0.00
2022-07-27T02:27:14.607Z,0.00
2022-07-27T02:28:14.609Z,0.00
2022-07-27T02:29:15.014Z,0.00
2022-07-27T02:30:14.568Z,0.00
2022-07-27T02:31:14.551Z,0.00
2022-07-27T02:32:14.547Z,0.00
2022-07-27T02:33:14.591Z,0.00
2022-07-27T02:34:14.514Z,0.00
2022-07-27T02:35:18.548Z,0.00
2022-07-27T02:36:14.493Z,0.00
2022-07-27T02:37:14.479Z,0.00
2022-07-27T02:38:14.466Z,0.00
2022-07-27T02:39:14.768Z,0.00
2022-07-27T02:40:14.437Z,0.00
2022-07-27T02:41:14.417Z,0.00
2022-07-27T02:42:14.407Z,0.00
2022-07-27T02:43:14.393Z,0.00
2022-07-27T02:44:14.388Z,0.00
2022-07-27T02:45:14.371Z,0.00
2022-07-27T02:46:14.456Z,0.00
2022-07-27T02:47:14.338Z,0.00
2022-07-27T02:48:14.331Z,0.00
2022-07-27T02:49:15.024Z,0.00
2022-07-27T02:50:14.303Z,0.00
2022-07-27T02:51:14.289Z,0.00
2022-07-27T02:52:14.286Z,0.00
2022-07-27T02:53:14.262Z,0.00
2022-07-27T02:54:14.253Z,0.00
2022-07-27T02:55:14.238Z,0.00
2022-07-27T02:56:14.227Z,0.00
2022-07-27T02:57:14.211Z,0.00
2022-07-27T02:58:14.206Z,0.00
2022-07-27T02:59:14.608Z,0.00
2022-07-27T03:00:14.169Z,0.00
2022-07-27T03:01:14.212Z,0.00
2022-07-27T03:02:14.144Z,0.00
2022-07-27T03:03:14.126Z,0.00
2022-07-27T03:04:14.167Z,0.00
2022-07-27T03:05:14.099Z,0.00
2022-07-27T03:06:14.099Z,0.00
2022-07-27T03:07:14.073Z,0.00
2022-07-27T03:08:14.066Z,0.00
2022-07-27T03:09:14.504Z,0.00
2022-07-27T03:10:14.047Z,0.00
2022-07-27T03:11:14.025Z,0.00
2022-07-27T03:12:14.007Z,0.00
2022-07-27T03:13:13.995Z,0.00
2022-07-27T03:14:13.985Z,0.00
2022-07-27T03:15:13.968Z,0.00
2022-07-27T03:16:14.062Z,0.00
2022-07-27T03:17:13.942Z,0.00
2022-07-27T03:18:13.929Z,0.00
2022-07-27T03:19:14.384Z,0.00
2022-07-27T03:20:13.908Z,4.00
2022-07-27T03:21:13.888Z,4.00
2022-07-27T03:22:13.882Z,0.00
2022-07-27T03:23:13.864Z,0.00
2022-07-27T03:24:13.854Z,4.00
2022-07-27T03:25:13.832Z,4.00
2022-07-27T03:26:13.830Z,4.00
2022-07-27T03:27:13.809Z,8.00
2022-07-27T03:28:13.796Z,4.00
2022-07-27T03:29:14.287Z,4.00
2022-07-27T03:30:13.768Z,8.00
2022-07-27T03:31:13.794Z,8.00
2022-07-27T03:32:13.739Z,12.00
2022-07-27T03:33:13.727Z,12.00
2022-07-27T03:34:13.714Z,12.00
2022-07-27T03:35:13.703Z,16.00
2022-07-27T03:36:13.696Z,16.00
2022-07-27T03:37:13.669Z,20.00
2022-07-27T03:38:13.663Z,24.00
2022-07-27T03:39:14.062Z,24.00
2022-07-27T03:40:13.630Z,28.00
2022-07-27T03:41:13.620Z,36.00
2022-07-27T03:42:13.608Z,40.00
2022-07-27T03:43:13.593Z,44.00
2022-07-27T03:44:13.583Z,48.00
2022-07-27T03:45:13.567Z,52.00
2022-07-27T03:46:13.630Z,60.00
2022-07-27T03:47:13.539Z,68.00
2022-07-27T03:48:13.524Z,72.00
2022-07-27T03:49:14.480Z,76.00
2022-07-27T03:50:13.502Z,84.00
2022-07-27T03:51:13.491Z,92.00
2022-07-27T03:52:17.625Z,100.00
2022-07-27T03:53:13.461Z,108.00
2022-07-27T03:54:13.450Z,116.00
2022-07-27T03:55:13.431Z,124.00
2022-07-27T03:56:13.440Z,140.00
2022-07-27T03:57:13.409Z,148.00
2022-07-27T03:58:13.396Z,164.00
2022-07-27T03:59:13.845Z,176.00
2022-07-27T04:00:13.378Z,192.00
2022-07-27T04:01:13.447Z,208.00
2022-07-27T04:02:13.404Z,220.00
2022-07-27T04:03:13.325Z,236.00
2022-07-27T04:04:13.312Z,244.00
2022-07-27T04:05:13.292Z,256.00
2022-07-27T04:06:13.289Z,272.00
2022-07-27T04:07:13.270Z,292.00
2022-07-27T04:08:13.258Z,304.00
2022-07-27T04:09:14.132Z,316.00
2022-07-27T04:10:13.234Z,332.00
2022-07-27T04:11:13.262Z,352.00
2022-07-27T04:12:13.203Z,372.00
2022-07-27T04:13:13.199Z,392.00
2022-07-27T04:14:13.178Z,408.00
2022-07-27T04:15:13.158Z,420.00
2022-07-27T04:16:13.200Z,440.00
2022-07-27T04:17:13.215Z,460.00
2022-07-27T04:18:13.119Z,472.00
2022-07-27T04:19:13.695Z,492.00
2022-07-27T04:20:13.095Z,504.00
2022-07-27T04:21:13.076Z,528.00
2022-07-27T04:22:13.088Z,548.00
2022-07-27T04:23:13.057Z,568.00
2022-07-27T04:24:13.042Z,584.00
2022-07-27T04:25:13.028Z,604.00
2022-07-27T04:26:13.021Z,632.00
2022-07-27T04:27:13.006Z,644.00
2022-07-27T04:28:13.001Z,672.00
2022-07-27T04:29:16.885Z,696.00
2022-07-27T04:30:12.968Z,716.00
2022-07-27T04:31:13.024Z,728.00
2022-07-27T04:32:12.937Z,748.00
2022-07-27T04:33:12.924Z,772.00
2022-07-27T04:34:12.912Z,800.00
2022-07-27T04:35:12.891Z,828.00
2022-07-27T04:36:12.889Z,868.00
2022-07-27T04:37:12.866Z,884.00
2022-07-27T04:38:12.859Z,892.00
2022-07-27T04:39:13.261Z,920.00
2022-07-27T04:40:12.830Z,952.00
2022-07-27T04:41:12.827Z,960.00
2022-07-27T04:42:12.807Z,992.00
2022-07-27T04:43:12.787Z,1020.00
2022-07-27T04:44:12.783Z,1040.00
2022-07-27T04:45:12.774Z,1084.00
2022-07-27T04:46:15.313Z,1076.00
2022-07-27T04:47:12.742Z,1092.00
2022-07-27T04:48:12.722Z,1108.00
2022-07-27T04:49:13.121Z,1124.00
2022-07-27T04:50:12.707Z,1112.00
2022-07-27T04:51:12.683Z,1132.00
2022-07-27T04:52:12.672Z,1168.00
2022-07-27T04:53:12.659Z,1168.00
2022-07-27T04:54:12.642Z,1180.00
2022-07-27T04:55:12.629Z,1200.00
2022-07-27T04:56:12.617Z,1216.00
2022-07-27T04:57:12.607Z,1228.00
2022-07-27T04:58:12.593Z,1260.00
2022-07-27T04:59:13.152Z,1296.00
2022-07-27T05:00:12.561Z,1348.00
2022-07-27T05:01:12.626Z,1396.00
2022-07-27T05:02:12.544Z,1420.00
2022-07-27T05:03:12.522Z,1476.00
2022-07-27T05:04:12.626Z,1512.00
2022-07-27T05:05:12.501Z,1532.00
2022-07-27T05:06:12.481Z,1608.00
2022-07-27T05:07:12.468Z,1636.00
2022-07-27T05:08:12.462Z,1656.00
2022-07-27T05:09:12.982Z,1664.00
2022-07-27T05:10:16.578Z,1668.00
2022-07-27T05:11:13.441Z,1704.00
2022-07-27T05:12:12.400Z,1740.00
2022-07-27T05:13:12.390Z,1752.00
2022-07-27T05:14:12.392Z,1804.00
2022-07-27T05:15:12.362Z,1836.00
2022-07-27T05:16:12.417Z,1880.00
2022-07-27T05:17:12.335Z,1936.00
2022-07-27T05:18:12.326Z,1976.00
2022-07-27T05:19:12.689Z,2000.00
2022-07-27T05:20:12.299Z,2008.00
2022-07-27T05:21:12.280Z,2036.00
2022-07-27T05:22:12.274Z,2032.00
2022-07-27T05:23:12.257Z,2048.00
2022-07-27T05:24:12.242Z,2084.00
2022-07-27T05:25:12.255Z,2104.00
2022-07-27T05:26:12.217Z,2144.00
2022-07-27T05:27:12.210Z,2196.00
2022-07-27T05:28:12.215Z,2276.00
2022-07-27T05:29:12.593Z,2320.00
2022-07-27T05:30:12.176Z,2392.00
2022-07-27T05:31:12.143Z,2452.00
2022-07-27T05:32:12.165Z,2580.00
2022-07-27T05:33:12.127Z,2656.00
2022-07-27T05:34:12.106Z,2660.00
2022-07-27T05:35:12.098Z,2684.00
2022-07-27T05:36:12.090Z,2712.00
2022-07-27T05:37:12.071Z,2696.00
2022-07-27T05:38:12.057Z,2796.00
2022-07-27T05:39:13.972Z,2840.00
2022-07-27T05:40:12.034Z,2924.00
2022-07-27T05:41:12.019Z,3024.00
2022-07-27T05:42:12.004Z,3140.00
2022-07-27T05:43:11.984Z,3160.00
2022-07-27T05:44:11.980Z,3240.00
2022-07-27T05:45:11.960Z,3244.00
2022-07-27T05:46:11.989Z,3212.00
2022-07-27T05:47:11.959Z,3260.00
2022-07-27T05:48:11.926Z,3312.00
2022-07-27T05:49:12.150Z,3360.00
2022-07-27T05:50:11.902Z,3496.00
2022-07-27T05:51:11.881Z,3600.00
2022-07-27T05:52:11.869Z,3720.00
2022-07-27T05:53:12.053Z,3900.00
2022-07-27T05:54:11.851Z,4016.00
2022-07-27T05:55:11.837Z,4020.00
2022-07-27T05:56:11.828Z,4044.00
2022-07-27T05:57:11.812Z,4080.00
2022-07-27T05:58:11.793Z,4068.00
2022-07-27T05:59:12.136Z,4056.00
2022-07-27T06:00:11.771Z,4112.00
2022-07-27T06:01:11.834Z,4172.00
2022-07-27T06:02:11.735Z,4100.00
2022-07-27T06:03:11.784Z,4092.00
2022-07-27T06:04:14.525Z,4268.00
2022-07-27T06:05:15.533Z,4252.00
2022-07-27T06:06:11.689Z,4332.00
2022-07-27T06:07:11.671Z,4424.00
2022-07-27T06:08:11.656Z,4568.00
2022-07-27T06:09:12.192Z,4784.00
2022-07-27T06:10:11.635Z,4724.00
2022-07-27T06:11:11.621Z,4612.00
2022-07-27T06:12:11.605Z,4408.00
2022-07-27T06:13:11.596Z,5136.00
2022-07-27T06:14:11.583Z,5076.00
2022-07-27T06:15:11.569Z,4416.00
2022-07-27T06:16:11.621Z,4632.00
2022-07-27T06:17:11.537Z,4840.00
2022-07-27T06:18:11.535Z,5108.00
2022-07-27T06:19:11.808Z,5768.00
2022-07-27T06:20:11.503Z,5996.00
2022-07-27T06:21:11.485Z,5548.00
2022-07-27T06:22:11.477Z,5400.00
2022-07-27T06:23:11.470Z,5556.00
2022-07-27T06:24:11.458Z,5608.00
2022-07-27T06:25:11.436Z,5728.00
2022-07-27T06:26:11.426Z,5880.00
2022-07-27T06:27:11.408Z,5884.00
2022-07-27T06:28:11.399Z,6260.00
2022-07-27T06:29:11.638Z,7156.00
2022-07-27T06:30:11.372Z,6488.00
2022-07-27T06:31:11.427Z,7452.00
2022-07-27T06:32:11.506Z,7040.00
2022-07-27T06:33:11.340Z,6616.00
2022-07-27T06:34:11.775Z,7660.00
2022-07-27T06:35:11.314Z,7032.00
2022-07-27T06:36:11.296Z,7296.00
2022-07-27T06:37:11.285Z,7324.00
2022-07-27T06:38:11.271Z,8528.00
2022-07-27T06:39:11.613Z,7820.00
2022-07-27T06:40:11.236Z,8556.00
2022-07-27T06:41:11.234Z,8872.00
2022-07-27T06:42:11.213Z,8508.00
2022-07-27T06:43:11.209Z,7984.00
2022-07-27T06:44:11.195Z,7296.00
2022-07-27T06:45:11.176Z,7180.00
2022-07-27T06:46:11.166Z,7828.00
2022-07-27T06:47:11.313Z,12740.00
2022-07-27T06:48:11.135Z,15264.00
2022-07-27T06:49:11.602Z,7536.00
2022-07-27T06:50:11.112Z,11964.00
2022-07-27T06:51:11.108Z,11112.00
2022-07-27T06:52:11.080Z,10940.00
2022-07-27T06:53:11.081Z,9044.00
2022-07-27T06:54:11.052Z,11804.00
2022-07-27T06:55:11.049Z,9508.00
2022-07-27T06:56:11.032Z,10308.00
2022-07-27T06:57:11.258Z,12444.00
2022-07-27T06:58:11.019Z,15648.00
2022-07-27T06:59:11.296Z,9408.00
2022-07-27T07:00:10.987Z,8876.00
2022-07-27T07:01:11.062Z,9520.00
2022-07-27T07:02:10.950Z,13420.00
2022-07-27T07:03:10.945Z,10520.00
2022-07-27T07:04:10.985Z,13652.00
2022-07-27T07:05:11.018Z,23072.00
2022-07-27T07:06:10.899Z,12048.00
2022-07-27T07:07:10.902Z,17184.00
2022-07-27T07:08:10.869Z,9348.00
2022-07-27T07:09:11.239Z,8492.00
2022-07-27T07:10:10.852Z,28256.00
2022-07-27T07:11:10.854Z,14848.00
2022-07-27T07:12:10.826Z,12704.00
2022-07-27T07:13:10.809Z,8732.00
2022-07-27T07:14:10.799Z,7200.00
2022-07-27T07:15:10.788Z,7036.00
2022-07-27T07:16:10.821Z,7372.00
2022-07-27T07:17:10.757Z,9152.00
2022-07-27T07:18:10.753Z,8800.00
2022-07-27T07:19:11.086Z,9520.00
2022-07-27T07:20:10.717Z,10780.00
2022-07-27T07:21:10.711Z,11284.00
2022-07-27T07:22:10.689Z,10476.00
2022-07-27T07:23:10.688Z,10696.00
2022-07-27T07:24:10.666Z,12088.00
2022-07-27T07:25:10.659Z,10816.00
2022-07-27T07:26:10.647Z,11128.00
2022-07-27T07:27:10.639Z,10896.00
2022-07-27T07:28:10.624Z,12540.00
2022-07-27T07:29:11.000Z,11440.00
2022-07-27T07:30:10.589Z,11424.00
2022-07-27T07:31:10.608Z,10880.00
2022-07-27T07:32:10.566Z,10708.00
2022-07-27T07:33:10.559Z,10000.00
2022-07-27T07:34:10.552Z,10236.00
2022-07-27T07:35:10.533Z,10352.00
2022-07-27T07:36:13.713Z,10756.00
2022-07-27T07:37:10.511Z,11236.00
2022-07-27T07:38:10.497Z,11784.00
2022-07-27T07:39:10.916Z,12836.00
2022-07-27T07:40:41.508Z,12984.00
2022-07-27T07:41:11.472Z,12780.00
2022-07-27T07:42:10.985Z,12824.00
2022-07-27T07:43:10.433Z,13140.00
2022-07-27T07:44:10.432Z,13492.00
2022-07-27T07:45:10.404Z,12824.00
2022-07-27T07:46:10.481Z,13328.00
2022-07-27T07:47:10.441Z,12952.00
2022-07-27T07:48:10.366Z,12668.00
2022-07-27T07:49:11.009Z,13512.00
2022-07-27T07:50:10.342Z,11200.00
2022-07-27T07:51:10.324Z,11712.00
2022-07-27T07:52:10.314Z,10272.00
2022-07-27T07:53:10.301Z,9904.00
2022-07-27T07:54:10.290Z,10016.00
2022-07-27T07:55:10.274Z,11620.00
2022-07-27T07:56:10.262Z,10248.00
2022-07-27T07:57:10.252Z,10416.00
2022-07-27T07:58:10.587Z,21856.00
2022-07-27T07:59:10.575Z,12024.00
2022-07-27T08:00:10.210Z,13020.00
2022-07-27T08:01:10.196Z,12912.00
2022-07-27T08:02:10.253Z,12696.00
2022-07-27T08:03:10.331Z,13036.00
2022-07-27T08:04:10.158Z,16288.00
2022-07-27T08:05:10.141Z,15168.00
2022-07-27T08:06:10.129Z,16384.00
2022-07-27T08:07:10.113Z,15520.00
2022-07-27T08:08:10.102Z,27104.00
2022-07-27T08:09:10.523Z,23552.00
2022-07-27T08:10:10.071Z,49312.00
2022-07-27T08:11:10.063Z,24000.00
2022-07-27T08:12:10.053Z,25696.00
2022-07-27T08:13:10.043Z,41472.00
2022-07-27T08:14:10.023Z,30656.00
2022-07-27T08:15:10.015Z,59648.00
2022-07-27T08:16:10.075Z,26944.00
2022-07-27T08:17:09.989Z,38816.00
2022-07-27T08:18:09.977Z,55616.00
2022-07-27T08:19:10.208Z,65856.00
2022-07-27T08:20:09.943Z,34752.00
2022-07-27T08:21:09.941Z,13284.00
2022-07-27T08:22:09.920Z,13988.00
2022-07-27T08:23:09.915Z,13444.00
2022-07-27T08:24:09.904Z,12248.00
2022-07-27T08:25:09.889Z,16928.00
2022-07-27T08:26:09.873Z,16384.00
2022-07-27T08:27:09.863Z,30336.00
2022-07-27T08:28:09.850Z,18368.00
2022-07-27T08:29:13.762Z,16960.00
2022-07-27T08:30:09.823Z,27008.00
2022-07-27T08:31:15.242Z,48928.00
2022-07-27T08:32:09.883Z,15044.00
2022-07-27T08:33:09.791Z,12060.00
2022-07-27T08:34:09.772Z,42240.00
2022-07-27T08:35:09.770Z,69312.00
2022-07-27T08:36:09.742Z,26560.00
2022-07-27T08:37:14.958Z,20864.00
2022-07-27T08:38:09.736Z,12328.00
2022-07-27T08:39:09.963Z,16448.00
2022-07-27T08:41:09.694Z,15680.00
2022-07-27T08:42:09.672Z,48576.00
2022-07-27T08:43:09.669Z,70912.00
2022-07-27T08:44:09.653Z,63296.00
2022-07-27T08:45:09.652Z,23840.00
2022-07-27T08:46:10.706Z,20768.00
2022-07-27T08:47:09.723Z,22976.00
2022-07-27T08:48:09.597Z,22176.00
2022-07-27T08:49:09.970Z,25760.00
2022-07-27T08:50:09.573Z,18688.00
2022-07-27T08:51:09.569Z,16928.00
2022-07-27T08:52:09.546Z,39008.00
2022-07-27T08:53:09.581Z,15776.00
2022-07-27T08:54:09.524Z,18528.00
2022-07-27T08:55:09.510Z,37216.00
2022-07-27T08:56:09.493Z,25952.00
2022-07-27T08:57:09.481Z,19008.00
2022-07-27T08:58:09.488Z,14784.00
2022-07-27T08:59:09.656Z,17472.00
2022-07-27T09:00:09.441Z,19072.00
2022-07-27T09:01:09.429Z,21952.00
2022-07-27T09:02:09.492Z,24352.00
2022-07-27T09:03:13.209Z,37664.00
2022-07-27T09:04:10.417Z,29408.00
2022-07-27T09:05:09.376Z,36608.00
2022-07-27T09:06:09.359Z,26016.00
2022-07-27T09:07:09.349Z,34880.00
2022-07-27T09:08:09.334Z,22208.00
2022-07-27T09:09:09.495Z,18656.00
2022-07-27T09:10:09.313Z,19424.00
2022-07-27T09:11:09.297Z,21760.00
2022-07-27T09:12:09.303Z,19104.00
2022-07-27T09:13:09.281Z,23712.00
2022-07-27T09:14:09.260Z,26720.00
2022-07-27T09:15:09.251Z,27008.00
2022-07-27T09:16:18.613Z,20800.00
2022-07-27T09:17:47.356Z,35712.00
2022-07-27T09:18:10.283Z,26048.00
2022-07-27T09:19:09.390Z,21408.00
2022-07-27T09:20:12.017Z,26880.00
2022-07-27T09:21:09.180Z,22784.00
2022-07-27T09:22:09.162Z,20224.00
2022-07-27T09:23:09.153Z,20160.00
2022-07-27T09:24:18.060Z,20768.00
2022-07-27T09:25:10.149Z,21664.00
2022-07-27T09:26:20.461Z,21056.00
2022-07-27T09:27:09.102Z,22592.00
2022-07-27T09:28:09.086Z,22592.00
2022-07-27T09:29:09.394Z,20704.00
2022-07-27T09:30:09.055Z,18400.00
2022-07-27T09:31:09.203Z,18368.00
2022-07-27T09:32:09.036Z,19744.00
2022-07-27T09:33:09.023Z,18624.00
2022-07-27T09:34:09.013Z,17504.00
2022-07-27T09:35:09.019Z,17632.00
2022-07-27T09:36:08.983Z,18848.00
2022-07-27T09:37:08.978Z,21824.00
2022-07-27T09:38:08.961Z,21920.00
2022-07-27T09:39:08.953Z,23232.00
2022-07-27T09:40:08.935Z,20864.00
2022-07-27T09:41:08.932Z,21248.00
2022-07-27T09:42:09.342Z,23104.00
2022-07-27T09:43:52.321Z,52448.00
2022-07-27T09:45:08.880Z,59648.00
2022-07-27T09:46:08.893Z,26464.00
2022-07-27T09:47:08.856Z,48960.00
2022-07-27T09:48:08.838Z,47872.00
2022-07-27T09:49:08.871Z,35520.00
2022-07-27T09:50:08.815Z,27264.00
2022-07-27T09:51:55.636Z,21600.00
2022-07-27T09:52:08.794Z,24288.00
2022-07-27T09:53:40.815Z,22912.00
2022-07-27T09:54:08.995Z,16896.00
2022-07-27T09:55:08.775Z,17152.00
2022-07-27T09:56:08.747Z,21856.00
2022-07-27T09:57:08.729Z,18560.00
2022-07-27T09:58:10.042Z,24736.00
2022-07-27T09:59:08.703Z,22944.00
2022-07-27T10:00:08.686Z,36416.00
2022-07-27T10:01:08.692Z,26016.00
2022-07-27T10:02:08.832Z,23520.00
2022-07-27T10:03:08.653Z,21888.00
2022-07-27T10:04:09.020Z,23040.00
2022-07-27T10:05:08.693Z,24000.00
2022-07-27T10:06:08.613Z,33824.00
2022-07-27T10:07:12.684Z,83584.00
2022-07-27T10:08:08.698Z,33280.00
2022-07-27T10:09:08.575Z,66272.00
2022-07-27T10:10:08.563Z,73600.00
2022-07-27T10:11:08.555Z,30016.00
2022-07-27T10:12:08.568Z,64864.00
2022-07-27T10:13:08.536Z,101408.00
2022-07-27T10:14:08.561Z,89440.00
2022-07-27T10:15:08.512Z,63008.00
2022-07-27T10:16:08.556Z,36096.00
2022-07-27T10:17:08.483Z,45120.00
2022-07-27T10:18:08.470Z,87520.00
2022-07-27T10:19:08.712Z,81760.00
2022-07-27T10:20:08.444Z,59200.00
2022-07-27T10:21:08.431Z,26048.00
2022-07-27T10:22:08.415Z,49504.00
2022-07-27T10:23:08.415Z,22656.00
2022-07-27T10:24:08.397Z,22368.00
2022-07-27T10:25:08.381Z,17920.00
2022-07-27T10:26:08.368Z,19168.00
2022-07-27T10:27:08.360Z,99392.00
2022-07-27T10:28:08.344Z,30368.00
2022-07-27T10:29:08.427Z,25248.00
2022-07-27T10:30:08.324Z,26592.00
2022-07-27T10:31:08.354Z,24800.00
2022-07-27T10:32:08.295Z,21504.00
2022-07-27T10:33:08.292Z,40256.00
2022-07-27T10:34:08.605Z,92800.00
2022-07-27T10:35:08.268Z,62432.00
2022-07-27T10:36:09.662Z,106880.00
2022-07-27T10:37:08.243Z,68192.00
2022-07-27T10:38:08.230Z,22144.00
2022-07-27T10:39:08.223Z,25504.00
2022-07-27T10:40:08.209Z,90912.00
2022-07-27T10:41:08.196Z,54688.00
2022-07-27T10:42:08.182Z,47520.00
2022-07-27T10:43:08.177Z,71296.00
2022-07-27T10:44:08.270Z,83904.00
2022-07-27T10:45:08.324Z,75296.00
2022-07-27T10:46:08.192Z,71424.00
2022-07-27T10:47:08.124Z,90624.00
2022-07-27T10:48:08.108Z,24576.00
2022-07-27T10:49:08.277Z,19776.00
2022-07-27T10:50:08.084Z,26496.00
2022-07-27T10:51:08.073Z,23584.00
2022-07-27T10:52:08.055Z,23904.00
2022-07-27T10:53:08.046Z,33920.00
2022-07-27T10:54:12.287Z,19648.00
2022-07-27T10:55:08.025Z,19360.00
2022-07-27T10:56:08.017Z,17408.00
2022-07-27T10:57:08.007Z,16480.00
2022-07-27T10:58:07.996Z,16608.00
2022-07-27T10:59:07.975Z,22336.00
2022-07-27T11:00:11.022Z,24000.00
2022-07-27T11:01:09.047Z,17920.00
2022-07-27T11:02:07.940Z,15968.00
2022-07-27T11:03:07.933Z,16704.00
2022-07-27T11:04:07.974Z,16416.00
2022-07-27T11:05:09.025Z,15840.00
2022-07-27T11:06:31.315Z,14332.00
2022-07-27T11:07:25.006Z,14244.00
2022-07-27T11:08:36.547Z,14376.00
2022-07-27T11:10:07.884Z,14040.00
2022-07-27T11:11:07.853Z,12644.00
2022-07-27T11:12:07.830Z,12980.00
2022-07-27T11:13:09.975Z,13992.00
2022-07-27T11:14:07.795Z,15184.00
2022-07-27T11:15:07.779Z,16864.00
2022-07-27T11:16:24.707Z,17856.00
2022-07-27T11:18:07.825Z,20096.00
2022-07-27T11:19:07.798Z,25344.00
2022-07-27T11:20:07.734Z,24448.00
2022-07-27T11:21:07.736Z,23552.00
2022-07-27T11:22:27.673Z,25536.00
2022-07-27T11:23:50.064Z,19552.00
2022-07-27T11:24:08.812Z,17568.00
2022-07-27T11:25:07.662Z,18144.00
2022-07-27T11:26:07.643Z,19136.00
2022-07-27T11:27:17.163Z,16576.00
2022-07-27T11:28:08.671Z,17600.00
2022-07-27T11:29:07.616Z,17408.00
2022-07-27T11:30:07.683Z,15648.00
2022-07-27T11:31:07.613Z,13652.00
2022-07-27T11:32:07.599Z,12148.00
2022-07-27T11:33:07.563Z,11180.00
2022-07-27T11:34:07.550Z,10348.00
2022-07-27T11:35:10.939Z,9316.00
2022-07-27T11:36:07.525Z,8720.00
2022-07-27T11:37:07.512Z,8408.00
2022-07-27T11:38:07.501Z,8148.00
2022-07-27T11:39:07.486Z,8236.00
2022-07-27T11:40:28.191Z,8028.00
2022-07-27T11:41:15.304Z,8204.00
2022-07-27T11:42:08.033Z,8332.00
2022-07-27T11:43:07.440Z,8156.00
2022-07-27T11:44:07.433Z,8640.00
2022-07-27T11:45:07.418Z,9432.00
2022-07-27T11:46:07.486Z,10820.00
2022-07-27T11:47:07.390Z,11900.00
2022-07-27T11:48:07.377Z,17856.00
2022-07-27T11:49:08.760Z,14668.00
2022-07-27T11:50:07.519Z,13848.00
2022-07-27T11:51:07.354Z,13216.00
2022-07-27T11:52:07.420Z,12912.00
2022-07-27T11:53:07.335Z,12728.00
2022-07-27T11:54:07.324Z,11884.00
2022-07-27T11:55:07.438Z,11552.00
2022-07-27T11:56:07.285Z,11764.00
2022-07-27T11:57:07.272Z,12420.00
2022-07-27T11:58:07.271Z,13264.00
2022-07-27T11:59:13.688Z,14044.00
2022-07-27T12:00:07.692Z,15296.00
2022-07-27T12:01:07.305Z,15648.00
2022-07-27T12:02:07.288Z,17664.00
2022-07-27T12:03:07.616Z,16896.00
2022-07-27T12:04:07.206Z,19520.00
2022-07-27T12:05:07.426Z,18304.00
2022-07-27T12:06:07.148Z,18336.00
2022-07-27T12:07:07.142Z,15264.00
2022-07-27T12:08:07.327Z,13944.00
2022-07-27T12:09:07.633Z,13448.00
2022-07-27T12:10:07.159Z,16512.00
2022-07-27T12:11:07.110Z,18912.00
2022-07-27T12:12:07.106Z,18784.00
2022-07-27T12:13:07.133Z,18048.00
2022-07-27T12:14:07.105Z,16640.00
2022-07-27T12:15:28.068Z,16320.00
2022-07-27T12:16:07.027Z,16448.00
2022-07-27T12:17:07.326Z,16928.00
2022-07-27T12:18:07.151Z,16480.00
2022-07-27T12:19:07.017Z,16896.00
2022-07-27T12:20:06.978Z,17280.00
2022-07-27T12:21:06.985Z,16800.00
2022-07-27T12:22:07.053Z,16256.00